createdAt,value
2022-12-09T00:02:49.060Z,1005.4
2022-12-09T00:18:04.961Z,1005.34
2022-12-09T00:33:21.004Z,1004.99
2022-12-09T00:48:38.074Z,1004.61
2022-12-09T01:03:56.239Z,1004.39
2022-12-09T01:19:13.096Z,1004.34
2022-12-09T01:34:28.934Z,1004.33
2022-12-09T01:49:44.732Z,1003.78
2022-12-09T02:05:01.816Z,1003.58
2022-12-09T02:20:17.968Z,1003.58
2022-12-09T02:35:33.728Z,1003.28
2022-12-09T02:50:50.692Z,1002.98
2022-12-09T03:06:08.905Z,1002.76
2022-12-09T03:21:25.550Z,1002.54
2022-12-09T03:36:41.554Z,1002.48
2022-12-09T03:51:57.498Z,1002.62
2022-12-09T04:07:14.499Z,1002.24
2022-12-09T04:22:30.667Z,1002.2
2022-12-09T04:37:47.433Z,1002.15
2022-12-09T04:53:04.478Z,1002.1
2022-12-09T05:08:23.658Z,1002.08
2022-12-09T05:23:37.523Z,1002.1
2022-12-09T05:38:53.493Z,1002.27
2022-12-09T05:54:09.660Z,1002.35
2022-12-09T06:09:26.443Z,1002.57
2022-12-09T06:24:42.217Z,1002.41
2022-12-09T06:39:59.428Z,1002.27
2022-12-09T06:55:16.236Z,1002.27
2022-12-09T07:10:33.548Z,1002.3
2022-12-09T07:25:49.128Z,1002.3
2022-12-09T07:41:05.568Z,1002.27
2022-12-09T07:56:21.036Z,1002.27
2022-12-09T08:11:38.452Z,1002.24
2022-12-09T08:26:54.246Z,1002.48
2022-12-09T08:42:11.053Z,1002.37
2022-12-09T08:57:28.157Z,1002.37
2022-12-09T09:12:44.994Z,1002.45
2022-12-09T09:28:02.262Z,1002.58
2022-12-09T09:43:18.139Z,1002.5
2022-12-09T09:58:34.098Z,1002.46
2022-12-09T10:13:50.949Z,1002.44
2022-12-09T10:29:07.031Z,1002.32
2022-12-09T10:44:23.962Z,1002.46
2022-12-09T10:59:40.886Z,1002.41
2022-12-09T11:14:59.088Z,1002.45
2022-12-09T11:30:15.595Z,1002.4
2022-12-09T11:45:30.525Z,1002.23
2022-12-09T12:00:46.477Z,1002.05
2022-12-09T12:16:03.454Z,1002.02
2022-12-09T12:31:19.473Z,1001.88
2022-12-09T12:46:36.388Z,1001.93
2022-12-09T13:01:53.410Z,1001.93
2022-12-09T13:17:10.358Z,1001.87
2022-12-09T13:32:26.283Z,1001.95
2022-12-09T13:47:42.291Z,1001.93
2022-12-09T14:02:58.302Z,1001.8
2022-12-09T14:18:15.236Z,1001.89
2022-12-09T14:33:32.161Z,1002.09
2022-12-09T14:48:49.180Z,1002.23
2022-12-09T15:04:06.321Z,1002.23
2022-12-09T15:19:57.941Z,1002.34
2022-12-09T15:34:39.088Z,1002.39
2022-12-09T15:49:55.034Z,1002.47
2022-12-09T16:05:11.012Z,1002.39
2022-12-09T16:20:28.032Z,1002.52
2022-12-09T16:35:43.966Z,1002.71
2022-12-09T16:51:00.968Z,1002.79
2022-12-09T17:06:17.899Z,1002.93
2022-12-09T17:21:34.860Z,1003.2
2022-12-09T17:36:50.829Z,1003.34
2022-12-09T17:52:06.774Z,1003.34
2022-12-09T18:07:19.096Z,1003.5
2022-12-09T18:22:36.705Z,1003.7
2022-12-09T18:37:53.718Z,1003.7
2022-12-09T18:53:09.648Z,1003.7
2022-12-09T19:08:26.621Z,1003.84
2022-12-09T19:23:42.591Z,1003.81
2022-12-09T19:38:58.576Z,1003.95
2022-12-09T19:54:15.536Z,1004.15
2022-12-09T20:09:33.487Z,1004.29
2022-12-09T20:24:50.481Z,1004.35
2022-12-09T20:40:06.635Z,1004.32
2022-12-09T20:55:22.405Z,1004.32
2022-12-09T21:10:39.357Z,1004.41
2022-12-09T21:25:55.331Z,1004.35
2022-12-09T21:41:11.347Z,1004.36
2022-12-09T21:56:28.277Z,1004.41
2022-12-09T22:11:46.248Z,1004.47
2022-12-09T22:12:32.122Z,1004.47
2022-12-09T22:27:04.260Z,1004.61
2022-12-09T22:42:20.194Z,1004.63
2022-12-09T22:57:36.199Z,1004.66
2022-12-09T23:12:54.112Z,1004.75
2022-12-09T23:28:11.133Z,1004.75
2022-12-09T23:43:28.064Z,1004.75
2022-12-09T23:58:44.051Z,1004.8
